Time;durP1;ratioP1;P1;durP2;ratioP2;P2;SDS_P1;SDS_P2;PMS_P1;PMS_P2;Temp;Humidity;BMP_temperature;BMP_pressure;BME280_temperature;BME280_humidity;BME280_pressure;Samples;Min_cycle;Max_cycle;Signal;HPM_P1;HPM_P2
2022/05/31 00:02:23;;;;;;;5.28;3.42;;;12.20;53.80;;;12.71;45.56;97227.91;5006776;28;20061;-42
2022/05/31 00:04:51;;;;;;;5.15;3.55;;;12.20;53.70;;;12.63;45.72;97222.66;5005844;28;20332;-43
2022/05/31 00:07:20;;;;;;;4.65;3.38;;;12.00;54.10;;;12.54;45.77;97222.75;5005890;28;20260;-43
2022/05/31 00:09:48;;;;;;;4.20;3.33;;;12.00;54.60;;;12.52;46.21;97213.25;5005670;28;20068;-43
2022/05/31 00:12:16;;;;;;;3.37;2.70;;;11.90;54.60;;;12.50;46.26;97220.63;5006675;28;20049;-45
2022/05/31 00:14:44;;;;;;;3.67;3.27;;;11.90;54.80;;;12.47;46.37;97223.66;5007189;28;20328;-43
2022/05/31 00:17:12;;;;;;;6.32;2.90;;;11.90;55.00;;;12.41;46.58;97228.72;5005997;28;20050;-42
2022/05/31 00:19:40;;;;;;;4.40;3.60;;;11.80;55.30;;;12.40;46.74;97218.22;5005484;28;20046;-42
2022/05/31 00:22:13;;;;;;;3.67;2.92;;;11.80;55.30;;;12.38;46.76;97215.72;5006058;28;20045;-43
2022/05/31 00:24:42;;;;;;;3.60;3.13;;;11.80;55.40;;;12.37;46.79;97216.75;5005549;28;20213;-42
2022/05/31 00:27:15;;;;;;;3.90;3.10;;;11.80;55.30;;;12.38;46.79;97221.06;5005677;28;20054;-43
2022/05/31 00:29:44;;;;;;;3.65;2.53;;;11.90;55.40;;;12.36;46.47;97208.91;5006958;28;20182;-42
2022/05/31 00:32:28;;;;;;;5.13;3.00;;;11.80;55.20;;;12.36;46.63;97208.91;5006479;28;20060;-43
2022/05/31 00:34:59;;;;;;;3.33;3.03;;;11.80;55.40;;;12.36;46.58;97206.25;5007750;28;20050;-41
2022/05/31 00:37:27;;;;;;;4.10;3.38;;;11.80;55.40;;;12.35;46.80;97197.41;4992768;28;20065;-44
2022/05/31 00:39:55;;;;;;;3.97;3.13;;;11.80;55.40;;;12.31;47.11;97200.63;5009246;28;20077;-42
2022/05/31 00:42:23;;;;;;;4.07;2.93;;;11.70;55.50;;;12.27;46.84;97202.00;5007214;28;20054;-45
2022/05/31 00:44:52;;;;;;;4.45;3.05;;;11.70;56.60;;;12.23;46.80;97209.53;5007930;28;20062;-43
2022/05/31 00:47:33;;;;;;;4.57;3.10;;;11.70;56.20;;;12.23;47.11;97212.22;5007799;28;20096;-42
2022/05/31 00:50:13;;;;;;;4.20;3.03;;;11.70;56.60;;;12.22;47.17;97205.22;5007128;28;20045;-42
2022/05/31 00:52:48;;;;;;;3.38;2.70;;;11.70;56.20;;;12.19;47.36;97203.75;5007804;28;20060;-47
2022/05/31 00:55:22;;;;;;;3.67;3.00;;;11.70;56.20;;;12.17;47.11;97194.25;5009033;28;20233;-42
2022/05/31 00:58:32;;;;;;;3.72;3.15;;;11.60;56.40;;;12.11;47.05;97198.47;5007382;28;20243;-43
2022/05/31 01:01:11;;;;;;;5.23;2.90;;;11.60;58.00;;;12.11;47.61;97197.66;5009858;28;20243;-43
2022/05/31 01:03:41;;;;;;;4.00;2.60;;;11.60;57.30;;;12.09;47.70;97202.34;5008373;28;20344;-45
2022/05/31 01:06:13;;;;;;;4.03;3.22;;;11.50;56.90;;;12.05;48.02;97201.88;5007650;28;20667;-44
2022/05/31 01:08:45;;;;;;;6.53;3.00;;;11.50;57.00;;;12.03;47.81;97201.22;5006614;28;20526;-45
2022/05/31 01:11:38;;;;;;;4.70;3.20;;;11.50;57.20;;;12.01;47.97;97203.25;5008000;28;20080;-42
2022/05/31 01:14:07;;;;;;;3.72;3.00;;;11.50;57.00;;;12.01;47.53;97203.25;5008801;28;20041;-43
2022/05/31 01:17:01;;;;;;;3.23;2.77;;;11.50;56.60;;;11.96;48.08;97209.16;5013809;28;20063;-44
2022/05/31 01:20:01;;;;;;;3.23;2.93;;;11.40;57.00;;;11.91;48.33;97202.69;5009697;28;20776;-43
2022/05/31 01:23:11;;;;;;;3.60;2.97;;;11.40;57.20;;;11.82;48.26;97210.75;5006870;28;20049;-41
2022/05/31 01:25:58;;;;;;;3.03;2.70;;;11.30;58.90;;;11.74;48.66;97212.63;5008720;28;20050;-42
2022/05/31 01:29:14;;;;;;;3.63;2.70;;;11.20;59.90;;;11.68;48.92;97210.69;5006916;28;20058;-42
2022/05/31 01:32:04;;;;;;;5.13;3.10;;;11.10;60.30;;;11.69;48.88;97202.50;5008816;28;20251;-44
2022/05/31 01:34:38;;;;;;;3.70;2.80;;;11.10;59.90;;;11.68;49.18;97206.16;5008665;28;20080;-43
2022/05/31 01:37:06;;;;;;;;;;;11.10;59.60;;;11.62;48.95;97210.38;5009344;28;20054;-43
2022/05/31 01:39:47;;;;;;;5.53;3.00;;;11.00;60.90;;;11.63;48.71;97200.53;5008765;28;19934;-46
2022/05/31 01:42:44;;;;;;;4.87;3.30;;;11.00;58.90;;;11.62;48.84;97201.56;5006485;28;20252;-42
2022/05/31 01:45:22;;;;;;;4.53;2.87;;;11.00;60.50;;;11.62;48.84;97205.03;5007102;28;20057;-43
2022/05/31 01:47:50;;;;;;;3.23;2.80;;;11.10;59.50;;;11.62;49.42;97205.03;5008176;28;20048;-42
2022/05/31 01:50:20;;;;;;;4.10;2.83;;;11.10;59.00;;;11.64;49.08;97202.22;5009203;28;20056;-46
2022/05/31 01:52:51;;;;;;;3.77;2.70;;;11.10;59.00;;;11.62;48.98;97205.03;5008699;28;20071;-46
2022/05/31 01:55:21;;;;;;;4.60;2.73;;;11.10;59.10;;;11.60;49.63;97199.06;4992644;28;20056;-43
2022/05/31 01:57:57;;;;;;;3.30;2.73;;;11.00;59.10;;;11.60;49.37;97195.56;5006594;28;20270;-44
2022/05/31 02:00:25;;;;;;;4.23;3.33;;;11.10;59.30;;;11.61;49.31;97197.22;5007816;28;20076;-43
2022/05/31 02:02:58;;;;;;;3.97;2.80;;;11.10;58.70;;;11.58;49.65;97189.59;5026378;28;20049;-41
2022/05/31 02:05:27;;;;;;;4.05;3.05;;;11.10;59.40;;;11.54;49.33;97197.13;5043460;28;20053;-42
2022/05/31 02:07:58;;;;;;;4.67;3.10;;;11.00;59.20;;;11.54;49.49;97196.28;5027622;28;20247;-42
2022/05/31 02:10:29;;;;;;;5.77;3.33;;;11.00;59.30;;;11.54;49.34;97201.63;5042280;28;20063;-43
2022/05/31 02:12:57;;;;;;;4.90;3.20;;;11.00;59.10;;;11.53;49.57;97200.78;5025880;28;20366;-42
2022/05/31 02:15:46;;;;;;;4.00;3.60;;;11.00;59.00;;;11.51;49.68;97207.31;5026884;28;20367;-41
2022/05/31 02:18:17;;;;;;;5.53;3.20;;;11.00;59.20;;;11.50;50.09;97201.16;5027214;28;20045;-47
2022/05/31 02:20:54;;;;;;;4.40;3.27;;;11.00;59.40;;;11.47;49.77;97204.16;5027006;28;20053;-42
2022/05/31 02:23:22;;;;;;;6.00;3.30;;;10.90;59.80;;;11.43;50.25;97200.19;5027668;28;20057;-41
2022/05/31 02:25:49;;;;;;;4.03;3.03;;;10.90;60.10;;;11.41;50.22;97197.69;5043353;28;20060;-41
2022/05/31 02:28:17;;;;;;;3.87;3.37;;;10.90;59.90;;;11.38;50.07;97206.06;5026042;28;20045;-42
2022/05/31 02:30:45;;;;;;;6.13;3.27;;;10.80;60.40;;;11.36;50.12;97201.91;5026309;28;20393;-41
2022/05/31 02:33:13;;;;;;;6.43;3.63;;;10.80;60.40;;;11.34;50.52;97206.56;5025995;28;20049;-41
2022/05/31 02:35:41;;;;;;;4.20;3.57;;;10.80;60.40;;;11.33;50.12;97210.25;5026494;28;20049;-43
2022/05/31 02:38:10;;;;;;;3.80;3.27;;;10.80;60.30;;;11.31;50.60;97209.63;5026240;28;20380;-42
2022/05/31 02:40:39;;;;;;;5.17;3.47;;;10.80;60.80;;;11.30;50.61;97203.47;5042007;28;20263;-43
2022/05/31 02:43:07;;;;;;;4.77;3.87;;;10.70;61.20;;;11.27;50.95;97200.31;5026689;28;20053;-43
2022/05/31 02:45:36;;;;;;;5.83;2.93;;;10.70;61.80;;;11.23;50.70;97198.00;5042424;28;20055;-42
2022/05/31 02:48:04;;;;;;;4.00;2.97;;;10.70;61.70;;;11.22;51.17;97199.00;5024969;28;20049;-42
2022/05/31 02:50:32;;;;;;;4.70;3.00;;;10.70;61.90;;;11.22;50.96;97196.34;5025496;28;20061;-42
2022/05/31 02:53:00;;;;;;;4.00;3.17;;;10.70;61.60;;;11.25;51.10;97197.00;5026889;28;20055;-44
2022/05/31 02:55:28;;;;;;;4.67;3.47;;;10.70;61.30;;;11.26;50.71;97187.97;5026382;28;20064;-44
2022/05/31 02:58:14;;;;;;;4.20;3.80;;;10.80;61.00;;;11.26;50.75;97193.31;5027937;28;20067;-45
2022/05/31 03:01:27;;;;;;;4.90;3.10;;;10.80;60.80;;;11.20;50.89;97189.50;5044401;28;20056;-42
2022/05/31 03:04:14;;;;;;;5.22;3.28;;;10.70;61.60;;;11.15;50.89;97190.06;5045952;28;20060;-44
2022/05/31 03:07:03;;;;;;;5.83;3.20;;;10.60;61.40;;;11.12;50.90;97193.06;5032342;28;20064;-44
2022/05/31 03:09:42;;;;;;;6.83;3.00;;;10.50;61.60;;;11.08;51.03;97185.59;5042924;28;20067;-44
2022/05/31 03:12:17;;;;;;;5.70;3.37;;;10.50;61.70;;;11.03;51.63;97194.94;5026289;28;20060;-43
2022/05/31 03:15:00;;;;;;;3.87;3.20;;;10.50;62.60;;;11.00;51.47;97191.81;5026179;28;20084;-43
2022/05/31 03:17:45;;;;;;;5.60;3.60;;;10.50;63.20;;;11.01;51.44;97190.78;5024023;28;20057;-41
2022/05/31 03:20:31;;;;;;;4.80;3.60;;;10.50;63.10;;;10.97;51.67;97195.66;5025156;28;20041;-42
2022/05/31 03:23:08;;;;;;;3.23;2.77;;;10.50;63.00;;;10.96;51.26;97198.50;5025346;28;20147;-45
2022/05/31 03:25:40;;;;;;;4.03;3.30;;;10.50;62.30;;;10.97;51.21;97203.66;5026308;28;20043;-43
2022/05/31 03:28:10;;;;;;;4.63;3.67;;;10.50;62.00;;;11.00;51.51;97197.13;5024049;28;20053;-42
2022/05/31 03:30:39;;;;;;;3.80;2.87;;;10.60;61.80;;;11.02;51.12;97200.44;5026199;28;20368;-41
2022/05/31 03:33:09;;;;;;;4.37;3.03;;;10.60;61.30;;;11.01;51.08;97198.78;5025054;28;20058;-42
2022/05/31 03:35:38;;;;;;;3.57;3.20;;;10.60;61.60;;;11.01;51.49;97204.97;5024795;28;20347;-42
2022/05/31 03:38:15;;;;;;;4.30;3.40;;;10.60;61.70;;;11.02;50.87;97195.94;5026068;28;20401;-42
2022/05/31 03:40:58;;;;;;;4.43;3.67;;;10.60;61.00;;;10.99;51.49;97198.13;5026537;28;20356;-42
2022/05/31 03:43:37;;;;;;;4.67;3.17;;;10.50;61.20;;;10.96;51.23;97196.66;5023867;28;20072;-45
2022/05/31 03:46:25;;;;;;;5.27;3.27;;;10.50;61.50;;;10.95;51.66;97186.16;5027420;28;20046;-42
2022/05/31 03:49:12;;;;;;;5.17;3.13;;;10.50;61.50;;;10.95;51.62;97184.34;5029265;28;20251;-41
2022/05/31 03:51:52;;;;;;;5.37;3.27;;;10.50;61.60;;;10.99;51.78;97185.66;5024356;28;20348;-42
2022/05/31 03:54:36;;;;;;;3.60;2.97;;;10.60;61.30;;;11.05;51.71;97189.47;5041806;28;20509;-42
2022/05/31 03:57:19;;;;;;;3.30;3.00;;;10.70;61.10;;;11.09;51.81;97188.09;5031029;28;20045;-43
2022/05/31 03:59:55;;;;;;;4.43;2.90;;;10.70;61.60;;;11.11;51.53;97186.09;5040198;28;20085;-44
2022/05/31 04:02:33;;;;;;;3.97;3.17;;;10.80;60.90;;;11.15;51.58;97186.56;5027539;28;20053;-45
2022/05/31 04:05:01;;;;;;;5.17;3.00;;;10.80;60.70;;;11.16;51.25;97189.03;5024009;28;20458;-42
2022/05/31 04:07:29;;;;;;;4.50;3.20;;;10.80;60.50;;;11.18;51.59;97189.69;5043544;28;20067;-41
2022/05/31 04:09:58;;;;;;;4.60;2.93;;;10.80;60.50;;;11.22;51.47;97188.34;5027851;28;20049;-45
2022/05/31 04:12:26;;;;;;;4.13;2.73;;;10.80;60.40;;;11.25;51.38;97187.16;5028928;28;20069;-44
2022/05/31 04:15:20;;;;;;;4.50;3.15;;;10.90;60.20;;;11.27;51.48;97184.31;5030475;28;20076;-44
2022/05/31 04:17:48;;;;;;;7.23;3.27;;;10.90;60.50;;;11.32;51.36;97181.94;5045481;28;20063;-43
2022/05/31 04:20:16;;;;;;;4.53;2.90;;;11.00;60.40;;;11.37;51.45;97179.59;5043684;28;20060;-45
2022/05/31 04:22:45;;;;;;;3.30;3.00;;;11.10;60.30;;;11.40;51.03;97181.91;5028610;28;20056;-43
2022/05/31 04:25:31;;;;;;;4.33;3.30;;;11.10;60.20;;;11.41;50.92;97181.72;5031656;28;20048;-42
2022/05/31 04:28:28;;;;;;;5.97;3.20;;;11.10;60.20;;;11.41;51.47;97176.38;5044961;28;20057;-45
2022/05/31 04:31:15;;;;;;;4.93;3.97;;;11.00;60.10;;;11.45;51.31;97168.84;5031547;28;20230;-43
2022/05/31 04:34:18;;;;;;;5.47;3.33;;;11.20;60.10;;;11.51;51.50;97175.31;5009119;28;20066;-43
2022/05/31 04:36:46;;;;;;;3.47;2.70;;;11.20;61.00;;;11.57;51.69;97172.78;5008352;28;20045;-43
2022/05/31 04:39:17;;;;;;;3.95;2.88;;;11.30;60.00;;;11.63;50.89;97165.88;5008430;28;20050;-42
2022/05/31 04:41:51;;;;;;;7.97;3.20;;;11.40;59.70;;;11.70;51.00;97169.50;5008094;28;20057;-44
2022/05/31 04:44:23;;;;;;;3.60;2.80;;;11.50;59.40;;;11.75;51.33;97174.31;5007491;28;20050;-42
2022/05/31 04:46:53;;;;;;;4.47;3.30;;;11.60;59.40;;;11.77;51.16;97173.09;5006382;28;20044;-44
2022/05/31 04:49:34;;;;;;;3.97;3.40;;;11.50;59.20;;;11.80;51.07;97174.56;5009263;28;20467;-44
2022/05/31 04:52:03;;;;;;;3.60;2.88;;;11.60;59.20;;;11.83;50.68;97174.22;5007478;28;20244;-42
2022/05/31 04:54:41;;;;;;;4.55;3.13;;;11.60;59.30;;;11.82;51.22;97177.88;5008653;28;20382;-44
2022/05/31 04:57:13;;;;;;;4.13;3.30;;;11.50;59.50;;;11.83;51.57;97176.88;5007545;28;20065;-41
2022/05/31 04:59:41;;;;;;;6.40;3.13;;;11.50;59.70;;;11.81;51.62;97178.91;5006719;28;20252;-41
2022/05/31 05:02:10;;;;;;;3.97;3.40;;;11.50;60.00;;;11.78;51.16;97182.75;5007893;28;20064;-43
2022/05/31 05:04:43;;;;;;;6.63;3.10;;;11.50;59.30;;;11.79;51.14;97170.25;5007423;28;20066;-42
2022/05/31 05:07:21;;;;;;;4.13;3.08;;;11.60;58.70;;;11.85;50.98;97172.19;5007383;28;20084;-42
2022/05/31 05:09:49;;;;;;;4.40;3.37;;;11.70;58.50;;;11.91;50.46;97168.03;5008199;28;20245;-47
2022/05/31 05:12:37;;;;;;;3.53;2.80;;;11.70;58.50;;;11.93;50.56;97166.81;5008851;28;20066;-44
2022/05/31 05:15:24;;;;;;;3.33;2.80;;;11.70;57.90;;;11.95;50.40;97170.13;5010487;28;20064;-46
2022/05/31 05:17:52;;;;;;;3.63;2.50;;;11.80;57.80;;;11.97;50.17;97167.28;5006501;28;20062;-45
2022/05/31 05:20:19;;;;;;;5.05;2.70;;;11.80;57.80;;;12.01;50.36;97169.41;5006509;28;20053;-43
2022/05/31 05:22:50;;;;;;;3.47;2.80;;;11.90;58.00;;;12.02;50.20;97165.72;5007443;28;20129;-43
2022/05/31 05:25:19;;;;;;;3.37;2.80;;;11.90;57.70;;;12.07;50.34;97167.03;5007845;28;20068;-43
2022/05/31 05:30:38;;;;;;;4.38;2.78;;;12.00;57.80;;;12.01;50.55;97169.41;5006670;28;20061;-41
2022/05/31 05:31:01;;;;;;;4.88;3.00;;;12.00;57.60;;;12.09;50.50;97167.66;5008801;28;20058;-42
2022/05/31 05:33:54;;;;;;;3.50;2.90;;;12.00;57.60;;;12.11;50.54;97173.66;5008129;28;20054;-46
2022/05/31 05:36:40;;;;;;;5.90;3.38;;;12.10;58.00;;;12.19;50.60;97173.56;5010004;28;20060;-44
2022/05/31 05:39:10;;;;;;;4.53;3.65;;;12.10;57.70;;;12.19;51.11;97178.91;5008381;28;20490;-42
2022/05/31 05:41:57;;;;;;;4.20;3.05;;;12.20;57.80;;;12.28;50.76;97169.78;5012556;28;20064;-46
2022/05/31 05:45:04;;;;;;;4.90;3.00;;;12.30;57.70;;;12.34;50.44;97162.91;5007203;28;20066;-41
2022/05/31 05:47:32;;;;;;;5.43;3.58;;;12.30;57.50;;;12.41;50.70;97166.50;5006909;28;20072;-43
2022/05/31 05:50:00;;;;;;;6.55;3.67;;;12.40;57.60;;;12.47;50.62;97164.94;5006699;28;20062;-46
2022/05/31 05:53:08;;;;;;;3.60;3.08;;;12.40;57.60;;;12.52;50.36;97159.84;5024357;28;20344;-43
2022/05/31 05:55:42;;;;;;;3.63;3.03;;;12.50;57.70;;;12.58;50.55;97162.63;5007670;28;20257;-45
2022/05/31 05:58:29;;;;;;;5.05;2.90;;;12.50;57.80;;;12.66;50.58;97167.03;5011997;28;20052;-47
2022/05/31 06:01:45;;;;;;;5.68;3.28;;;12.60;57.50;;;12.82;50.51;97173.19;5009808;28;20267;-45
2022/05/31 06:05:07;;;;;;;6.32;3.85;;;12.90;57.80;;;12.99;51.07;97170.09;5007726;28;20068;-44
2022/05/31 06:07:52;;;;;;;3.92;3.03;;;13.10;58.10;;;13.08;50.61;97172.66;5006403;28;20060;-45
2022/05/31 06:10:27;;;;;;;4.07;3.35;;;13.30;57.20;;;13.18;50.28;97168.69;5007303;28;20240;-47
2022/05/31 06:13:10;;;;;;;5.93;3.10;;;13.40;56.30;;;13.30;49.89;97176.19;4990566;28;20060;-45
2022/05/31 06:15:48;;;;;;;4.95;3.35;;;13.50;56.10;;;13.37;49.77;97169.91;5006184;28;20046;-43
2022/05/31 06:18:24;;;;;;;3.38;2.80;;;13.60;55.80;;;13.44;49.89;97163.81;4990541;28;20066;-46
2022/05/31 06:20:59;;;;;;;4.50;3.10;;;13.70;56.20;;;13.50;50.00;97176.41;5005817;28;20071;-44
2022/05/31 06:23:28;;;;;;;8.02;3.67;;;13.70;56.00;;;13.57;49.52;97171.94;5016118;28;20057;-48
2022/05/31 06:25:58;;;;;;;6.97;4.13;;;13.80;55.70;;;13.63;49.41;97179.22;5035021;28;20060;-44
2022/05/31 06:28:35;;;;;;;3.83;2.90;;;13.80;55.50;;;13.71;49.31;97171.06;5037120;28;20531;-48
2022/05/31 06:31:03;;;;;;;4.63;2.80;;;13.90;55.10;;;13.75;49.08;97168.81;5036850;28;20364;-48
2022/05/31 06:33:31;;;;;;;4.82;2.90;;;14.00;54.80;;;13.84;48.95;97170.34;5037557;28;20051;-46
2022/05/31 06:36:01;;;;;;;3.13;2.55;;;14.10;54.50;;;13.95;48.48;97177.00;5035973;28;20053;-49
2022/05/31 06:38:31;;;;;;;3.33;2.55;;;14.20;53.90;;;14.05;48.27;97182.84;5037003;28;20073;-46
2022/05/31 06:40:58;;;;;;;4.13;2.40;;;14.30;53.50;;;14.12;48.19;97185.59;5036137;28;20049;-46
2022/05/31 06:43:45;;;;;;;3.80;2.60;;;14.40;53.30;;;14.21;48.20;97176.41;5040432;28;20080;-45
2022/05/31 06:46:32;;;;;;;3.50;2.65;;;14.50;53.60;;;14.29;48.24;97176.22;5035270;28;20060;-49
2022/05/31 06:49:19;;;;;;;5.28;2.88;;;14.60;53.60;;;14.36;48.20;97179.78;5038110;28;20100;-45
2022/05/31 06:58:51;;;;;;;7.18;3.00;;;14.90;53.70;;;14.72;47.98;97170.72;5047467;28;20075;-45
2022/05/31 07:01:22;;;;;;;5.22;2.83;;;15.00;53.50;;;14.85;48.27;97167.28;5036686;28;20045;-46
2022/05/31 07:03:51;;;;;;;4.90;2.63;;;15.20;53.50;;;14.96;48.08;97161.34;5052906;28;20041;-46
2022/05/31 07:06:19;;;;;;;4.18;3.00;;;15.30;53.40;;;15.03;48.04;97168.59;5036363;28;20055;-47
2022/05/31 07:08:53;;;;;;;10.93;3.13;;;15.40;53.10;;;15.08;47.62;97168.78;5036732;28;20050;-48
2022/05/31 07:11:26;;;;;;;4.63;3.40;;;15.40;52.80;;;15.10;47.58;97167.59;5037135;28;20252;-45
2022/05/31 07:14:27;;;;;;;4.97;2.55;;;15.40;52.60;;;15.16;47.10;97160.59;5037012;28;20053;-48
2022/05/31 07:17:20;;;;;;;4.88;2.63;;;15.40;52.30;;;15.14;47.13;97162.63;5036399;28;20059;-44
2022/05/31 07:19:54;;;;;;;3.90;2.25;;;15.30;52.40;;;15.16;47.09;97164.09;5035896;28;20075;-44
2022/05/31 07:22:38;;;;;;;5.55;2.80;;;15.40;52.40;;;15.21;46.99;97165.34;5034307;28;20045;-49
2022/05/31 07:25:26;;;;;;;4.88;2.90;;;15.40;52.40;;;15.27;47.15;97164.53;5032221;28;20050;-47
2022/05/31 07:28:01;;;;;;;4.07;2.50;;;15.40;52.50;;;15.31;46.98;97163.91;5003357;28;20049;-46
2022/05/31 07:30:29;;;;;;;5.10;3.03;;;15.50;52.40;;;15.39;47.07;97164.75;5035195;28;20051;-48
2022/05/31 07:32:58;;;;;;;4.00;2.45;;;15.60;52.30;;;15.41;47.12;97166.22;5035164;28;20067;-45
2022/05/31 07:35:49;;;;;;;4.63;3.33;;;15.70;52.50;;;15.48;46.98;97161.69;5052424;28;20060;-47
2022/05/31 07:38:23;;;;;;;4.78;3.17;;;15.70;52.30;;;15.54;47.04;97166.22;5036653;28;20061;-48
2022/05/31 07:40:53;;;;;;;4.97;2.70;;;15.80;52.20;;;15.59;46.87;97164.81;5036449;28;20049;-45
2022/05/31 07:43:22;;;;;;;5.53;3.05;;;15.90;52.30;;;15.66;46.90;97163.75;5055953;28;20071;-46
2022/05/31 07:46:07;;;;;;;4.55;2.67;;;15.90;52.70;;;15.75;46.62;97170.59;5038771;28;20045;-45
2022/05/31 07:48:38;;;;;;;3.17;2.88;;;16.10;51.40;;;15.79;46.73;97159.47;5038699;28;20377;-46
2022/05/31 07:51:27;;;;;;;4.60;2.72;;;16.10;51.60;;;15.88;46.55;97160.94;5041359;28;20042;-44
2022/05/31 07:54:18;;;;;;;4.20;2.45;;;16.20;51.50;;;15.98;46.06;97163.19;5028181;28;20324;-45
2022/05/31 07:58:30;;;;;;;4.40;2.70;;;16.30;51.10;;;16.06;45.93;97163.78;5031800;28;20419;-45
2022/05/31 08:00:19;;;;;;;2.83;2.42;;;16.40;50.60;;;16.11;46.05;97158.63;5042781;28;20309;-44
2022/05/31 08:02:47;;;;;;;3.85;2.60;;;16.40;50.90;;;16.19;45.91;97156.75;5043171;28;20045;-48
2022/05/31 08:05:15;;;;;;;8.00;3.03;;;16.50;51.00;;;16.22;46.02;97164.41;5042776;28;20045;-45
2022/05/31 08:07:43;;;;;;;5.43;2.55;;;16.50;51.00;;;16.26;46.35;97158.38;5042760;28;20052;-46
2022/05/31 08:10:13;;;;;;;4.55;3.03;;;16.60;51.10;;;16.29;45.92;97158.00;5043979;28;20045;-46
2022/05/31 08:12:41;;;;;;;5.18;3.17;;;16.60;50.90;;;16.30;46.18;97151.59;5038198;28;20053;-47
2022/05/31 08:15:10;;;;;;;4.97;3.15;;;16.60;51.00;;;16.33;45.89;97153.03;5048923;28;20053;-46
2022/05/31 08:17:38;;;;;;;7.95;3.83;;;16.50;51.00;;;16.38;45.82;97150.53;5051850;28;20072;-47
2022/05/31 08:20:07;;;;;;;8.10;2.65;;;16.60;51.00;;;16.42;45.99;97148.25;5045626;28;20055;-47
2022/05/31 08:22:35;;;;;;;5.13;2.80;;;16.60;51.00;;;16.48;45.74;97144.75;5045096;28;20037;-45
2022/05/31 08:25:04;;;;;;;4.97;2.72;;;16.70;50.80;;;16.54;46.04;97144.69;5044808;28;20055;-50
2022/05/31 08:27:34;;;;;;;5.43;2.72;;;16.90;51.00;;;16.63;46.06;97147.16;5045015;28;20045;-48
2022/05/31 08:30:05;;;;;;;4.13;3.00;;;16.90;51.30;;;16.73;45.97;97143.00;5045018;28;20099;-47
2022/05/31 08:32:35;;;;;;;7.63;2.53;;;17.10;50.90;;;16.83;45.54;97141.75;5043099;28;20061;-44
2022/05/31 08:35:07;;;;;;;5.32;2.60;;;17.10;50.20;;;16.88;45.42;97133.84;5038076;28;20255;-46
2022/05/31 08:37:37;;;;;;;2.78;2.00;;;17.20;49.90;;;16.98;44.67;97128.84;5030911;28;20064;-44
2022/05/31 08:40:06;;;;;;;3.65;2.85;;;17.30;49.20;;;17.05;44.59;97139.56;5031533;28;20051;-47
2022/05/31 08:43:05;;;;;;;3.33;2.38;;;17.40;48.80;;;17.11;44.28;97136.84;5030015;28;20049;-46
2022/05/31 08:45:50;;;;;;;2.97;2.13;;;17.50;47.80;;;17.27;44.10;97137.38;5029318;28;20054;-51
2022/05/31 08:48:31;;;;;;;2.70;2.05;;;17.70;48.00;;;17.38;43.81;97144.75;5028874;28;20217;-48
2022/05/31 08:57:12;;;;;;;3.28;2.30;;;18.10;47.10;;;17.75;42.88;97147.59;5014063;28;20221;-46
2022/05/31 08:59:57;;;;;;;3.20;2.00;;;18.30;45.80;;;17.89;43.13;97145.66;5025985;28;20302;-50
2022/05/31 09:02:44;;;;;;;3.10;1.90;;;18.40;46.60;;;18.00;42.18;97152.22;5025491;28;20052;-47
2022/05/31 09:05:56;;;;;;;2.80;2.20;;;18.50;44.30;;;18.03;41.05;97151.75;5026755;28;20057;-45
2022/05/31 09:09:04;;;;;;;3.28;2.40;;;18.60;43.50;;;18.12;42.10;97146.91;5020089;28;20244;-45
2022/05/31 09:11:47;;;;;;;4.07;2.80;;;18.60;44.20;;;18.17;43.46;97150.59;5027155;28;20065;-48
2022/05/31 09:14:34;;;;;;;2.80;2.55;;;18.70;47.50;;;18.13;44.28;97153.97;5025584;28;20084;-47
2022/05/31 09:17:28;;;;;;;4.38;2.60;;;18.60;48.50;;;18.20;43.87;97152.84;5025782;28;20053;-45
2022/05/31 09:20:30;;;;;;;5.57;2.50;;;18.60;47.60;;;18.30;44.28;97155.88;5025266;28;20079;-47
2022/05/31 09:22:59;;;;;;;4.30;3.03;;;18.80;48.50;;;18.32;43.71;97166.44;5021524;28;20067;-45
2022/05/31 09:25:39;;;;;;;7.65;4.05;;;18.80;47.70;;;18.36;43.75;97156.00;5025438;28;20049;-47
2022/05/31 09:28:40;;;;;;;6.25;4.60;;;18.80;47.80;;;18.27;43.48;97158.19;5024841;28;20053;-46
2022/05/31 09:31:39;;;;;;;7.05;3.58;;;18.70;47.50;;;18.32;43.06;97162.88;5011119;28;20364;-47
2022/05/31 09:34:48;;;;;;;4.93;3.22;;;18.70;47.20;;;18.33;43.23;97169.94;5028378;28;20053;-46
2022/05/31 09:37:34;;;;;;;3.60;3.20;;;18.60;47.40;;;18.32;42.57;97165.59;5027052;28;20063;-49
2022/05/31 09:40:33;;;;;;;5.15;4.00;;;18.70;47.20;;;18.27;42.57;97164.38;5028404;28;20064;-48
2022/05/31 09:43:22;;;;;;;4.63;3.15;;;18.70;46.70;;;18.38;42.77;97162.84;5027112;28;20053;-46
2022/05/31 09:46:39;;;;;;;7.60;4.13;;;18.70;47.20;;;18.49;42.75;97170.19;5028039;28;20057;-50
2022/05/31 09:49:46;;;;;;;8.73;4.05;;;18.90;46.10;;;18.60;43.13;97160.53;5026813;28;20057;-49
2022/05/31 09:52:37;;;;;;;5.25;3.70;;;19.10;46.70;;;18.74;43.33;97163.06;4991488;28;20060;-45
2022/05/31 09:59:08;;;;;;;4.97;4.05;;;19.40;46.60;;;18.94;42.73;97160.16;5008727;28;20056;-44
2022/05/31 10:02:24;;;;;;;4.38;2.90;;;19.50;45.90;;;19.08;42.19;97158.97;5009718;28;20057;-47
2022/05/31 10:05:17;;;;;;;4.97;3.30;;;19.70;45.70;;;19.23;42.11;97156.69;5005799;28;20053;-45
2022/05/31 10:07:46;;;;;;;3.20;2.90;;;19.90;45.70;;;19.40;41.83;97147.94;5007836;28;20068;-48
2022/05/31 10:10:29;;;;;;;4.63;2.97;;;20.00;45.20;;;19.48;39.53;97155.69;5006196;28;20256;-44
2022/05/31 10:13:03;;;;;;;3.97;3.20;;;20.10;41.40;;;19.37;39.50;97154.63;5005626;28;20328;-48
2022/05/31 10:15:45;;;;;;;;;;;19.80;42.50;;;19.28;39.25;97148.72;5008240;28;20268;-47
2022/05/31 10:18:31;;;;;;;4.25;2.40;;;19.70;42.00;;;19.40;40.05;97145.25;5007362;28;19925;-45
2022/05/31 10:21:10;;;;;;;3.30;2.50;;;19.80;42.50;;;19.28;38.73;97147.91;5007506;28;20057;-47
2022/05/31 10:23:45;;;;;;;3.88;2.78;;;19.70;41.30;;;19.05;35.82;97143.22;5005583;28;20064;-47
2022/05/31 10:26:37;;;;;;;6.90;2.08;;;19.40;37.70;;;19.16;38.06;97133.53;5009928;28;20406;-46
2022/05/31 10:29:33;;;;;;;5.05;2.38;;;19.30;41.20;;;19.19;39.10;97133.91;5007886;28;20225;-47
2022/05/31 10:32:34;;;;;;;2.50;1.98;;;19.40;42.30;;;19.20;38.86;97134.72;5008095;28;20053;-47
2022/05/31 10:35:19;;;;;;;4.38;2.20;;;19.60;40.90;;;19.19;38.40;97143.88;5008053;28;20060;-47
2022/05/31 10:38:05;;;;;;;3.47;2.20;;;19.70;41.10;;;19.17;38.16;97151.38;5006054;28;20052;-47
2022/05/31 10:40:56;;;;;;;3.05;2.60;;;19.60;40.60;;;19.23;38.13;97145.91;5006410;28;20046;-48
2022/05/31 10:43:38;;;;;;;2.78;2.03;;;19.70;40.40;;;19.38;37.30;97148.16;5007650;28;20087;-47
2022/05/31 10:46:30;;;;;;;3.20;1.90;;;19.90;39.20;;;19.38;36.72;97144.66;5006036;28;20049;-47
2022/05/31 10:49:20;;;;;;;2.25;1.77;;;19.90;38.30;;;19.46;36.98;97141.63;5007528;28;20502;-48
2022/05/31 10:52:32;;;;;;;2.88;2.08;;;20.00;38.90;;;19.55;36.03;97137.53;5006979;28;20233;-48
2022/05/31 10:55:25;;;;;;;2.47;1.83;;;20.10;37.60;;;19.42;34.38;97141.25;4996112;28;20384;-46
2022/05/31 10:58:16;;;;;;;2.55;2.35;;;19.90;35.60;;;19.57;35.68;97137.31;5007396;28;20049;-51
2022/05/31 11:00:55;;;;;;;3.88;2.10;;;20.00;38.10;;;19.55;34.99;97137.53;4991572;28;20062;-45
2022/05/31 11:03:38;;;;;;;4.45;1.90;;;20.00;36.50;;;19.72;36.55;97134.22;5006299;28;20249;-49
2022/05/31 11:06:09;;;;;;;2.63;2.03;;;20.20;38.50;;;19.80;36.35;97139.28;5007128;28;20064;-45
2022/05/31 11:11:59;;;;;;;3.30;2.05;;;20.60;36.40;;;20.04;34.73;97140.91;5006065;28;20067;-46
2022/05/31 11:14:46;;;;;;;4.85;2.78;;;20.60;35.90;;;20.03;33.84;97144.69;5006966;28;20362;-46
2022/05/31 11:17:34;;;;;;;2.10;1.83;;;20.60;35.20;;;20.14;34.14;97137.66;5006255;28;20054;-45
2022/05/31 11:20:30;;;;;;;3.78;1.95;;;20.60;35.70;;;20.16;33.06;97135.56;5007944;28;20064;-46
2022/05/31 11:23:26;;;;;;;2.58;1.90;;;20.70;33.80;;;20.14;32.38;97132.25;5005631;28;20362;-48
2022/05/31 11:26:42;;;;;;;2.35;1.58;;;20.50;33.00;;;20.10;32.03;97132.94;5007313;28;20053;-47
2022/05/31 11:29:38;;;;;;;4.28;2.00;;;20.50;32.80;;;20.06;32.61;97133.44;5005075;28;20263;-47
2022/05/31 11:32:17;;;;;;;5.15;2.00;;;20.50;34.00;;;20.15;32.15;97141.19;5003730;28;20288;-45
2022/05/31 11:34:51;;;;;;;3.20;1.85;;;20.50;33.60;;;20.21;31.59;97145.66;5021639;28;20050;-48